Time;durP1;ratioP1;P1;durP2;ratioP2;P2;SDS_P1;SDS_P2;PMS_P1;PMS_P2;Temp;Humidity;BMP_temperature;BMP_pressure;BME280_temperature;BME280_humidity;BME280_pressure;Samples;Min_cycle;Max_cycle;Signal;HPM_P1;HPM_P2
2023/06/27 00:01:09;;;;;;;4.05;3.30;;;;;;;14.43;100.00;98942.69;5159600;27;20082;-60
2023/06/27 00:03:35;;;;;;;5.18;3.70;;;;;;;14.42;100.00;98957.63;5158991;27;20042;-61
2023/06/27 00:06:04;;;;;;;4.03;3.30;;;;;;;14.34;100.00;98959.63;5159193;27;20050;-60
2023/06/27 00:08:29;;;;;;;4.53;3.20;;;;;;;14.17;100.00;98943.88;5159064;27;20050;-60
2023/06/27 00:10:55;;;;;;;7.80;3.85;;;;;;;14.26;100.00;98940.72;5159127;27;20053;-59
2023/06/27 00:13:21;;;;;;;4.82;3.60;;;;;;;14.05;100.00;98936.78;5159040;27;20057;-55
2023/06/27 00:15:52;;;;;;;5.00;3.33;;;;;;;14.04;100.00;98931.69;5158868;27;20046;-55
2023/06/27 00:18:21;;;;;;;9.38;3.42;;;;;;;14.11;100.00;98934.44;5159142;27;20135;-59
2023/06/27 00:20:47;;;;;;;4.13;3.55;;;;;;;14.02;100.00;98936.78;5158949;27;20119;-60
2023/06/27 00:23:18;;;;;;;6.30;3.67;;;;;;;14.02;100.00;98943.06;5158298;27;20046;-57
2023/06/27 00:25:44;;;;;;;4.70;3.40;;;;;;;14.13;100.00;98948.63;5158745;27;20047;-54
2023/06/27 00:28:10;;;;;;;5.00;3.20;;;;;;;13.89;100.00;98944.66;5158652;27;20149;-58
2023/06/27 00:30:36;;;;;;;3.97;3.30;;;;;;;14.00;100.00;98947.44;5158502;27;20057;-60
2023/06/27 00:33:02;;;;;;;7.07;3.42;;;;;;;13.83;100.00;98938.75;5158852;27;20133;-59
2023/06/27 00:35:32;;;;;;;4.43;3.22;;;;;;;13.81;100.00;98948.59;5158785;27;20064;-59
2023/06/27 00:37:58;;;;;;;4.82;3.58;;;;;;;13.78;100.00;98935.59;5158694;27;20062;-59
2023/06/27 00:40:25;;;;;;;4.43;3.17;;;;;;;13.75;100.00;98923.38;5158876;27;20046;-59
2023/06/27 00:42:50;;;;;;;4.25;3.47;;;;;;;13.75;100.00;98926.13;5158607;27;20194;-60
2023/06/27 00:45:16;;;;;;;4.15;2.88;;;;;;;13.54;100.00;98917.84;5158730;27;20050;-61
2023/06/27 00:47:42;;;;;;;4.22;3.30;;;;;;;13.66;100.00;98914.69;5158439;27;20085;-59
2023/06/27 00:50:09;;;;;;;5.68;3.75;;;;;;;13.71;100.00;98930.84;5158777;27;20057;-55
2023/06/27 00:52:36;;;;;;;4.93;3.58;;;;;;;13.67;100.00;98948.56;5158373;27;20051;-55
2023/06/27 00:55:03;;;;;;;6.07;2.97;;;;;;;13.63;100.00;98943.84;5158737;27;20042;-58
2023/06/27 00:57:30;;;;;;;5.28;3.40;;;;;;;13.78;100.00;98939.13;5158224;27;20078;-55
2023/06/27 00:59:56;;;;;;;6.70;3.60;;;;;;;13.74;100.00;98954.09;5158491;27;20051;-57
2023/06/27 01:02:23;;;;;;;4.80;3.47;;;;;;;13.53;100.00;98966.63;5158209;27;20504;-54
2023/06/27 01:04:50;;;;;;;7.53;3.40;;;;;;;13.74;100.00;98963.13;5158332;27;20055;-58
2023/06/27 01:07:23;;;;;;;4.47;3.13;;;;;;;13.58;100.00;98965.47;5158415;27;20057;-56
2023/06/27 01:09:52;;;;;;;7.70;3.13;;;;;;;13.62;100.00;98966.25;5158245;27;20433;-52
2023/06/27 01:12:24;;;;;;;4.95;3.55;;;;;;;13.53;100.00;98968.56;5158394;27;20379;-59
2023/06/27 01:14:55;;;;;;;3.85;3.40;;;;;;;13.47;100.00;98959.94;5157956;27;20051;-54
2023/06/27 01:17:21;;;;;;;4.40;3.50;;;;;;;13.67;100.00;98971.38;5158410;27;20114;-57
2023/06/27 01:19:52;;;;;;;4.72;3.60;;;;;;;13.56;100.00;98985.13;5157897;27;20171;-55
2023/06/27 01:22:29;;;;;;;4.03;3.28;;;;;;;13.75;100.00;98985.97;5158356;27;20110;-54
2023/06/27 01:24:56;;;;;;;6.72;3.13;;;;;;;13.43;100.00;99000.44;5157858;27;20055;-61
2023/06/27 01:27:22;;;;;;;4.55;3.08;;;;;;;13.59;100.00;98980.78;5158078;27;20142;-57
2023/06/27 01:29:48;;;;;;;7.30;3.10;;;;;;;13.46;100.00;99004.38;5158117;27;20061;-60
2023/06/27 01:32:22;;;;;;;6.95;3.13;;;;;;;13.65;100.00;99006.78;5157936;27;20329;-56
2023/06/27 01:34:55;;;;;;;4.60;3.33;;;;;;;13.35;100.00;99009.84;5161515;27;20089;-59
2023/06/27 01:37:25;;;;;;;3.75;3.22;;;;;;;13.39;100.00;99013.38;5161457;27;20053;-52
2023/06/27 01:39:56;;;;;;;9.00;3.00;;;;;;;13.20;100.00;99008.97;5161824;27;20054;-56
2023/06/27 01:42:28;;;;;;;4.72;3.40;;;;;;;13.38;100.00;99006.31;5161339;27;20049;-60
2023/06/27 01:44:54;;;;;;;5.30;3.78;;;;;;;13.48;100.00;99013.03;5161796;27;20138;-52
2023/06/27 01:47:22;;;;;;;5.30;3.33;;;;;;;13.38;100.00;99029.13;5161289;27;20050;-58
2023/06/27 01:49:48;;;;;;;5.88;2.90;;;;;;;13.55;100.00;99026.81;5161277;27;20319;-57
2023/06/27 01:52:14;;;;;;;5.60;3.42;;;;;;;13.56;100.00;99025.63;5161577;27;20297;-56
2023/06/27 01:54:40;;;;;;;5.55;4.20;;;;;;;13.52;100.00;99028.38;5161325;27;20057;-55
2023/06/27 01:57:07;;;;;;;4.75;3.75;;;;;;;13.54;100.00;99028.00;5161497;27;20051;-57
2023/06/27 01:59:33;;;;;;;5.25;3.33;;;;;;;13.45;100.00;99019.31;5161183;27;20137;-53
2023/06/27 02:01:59;;;;;;;6.22;3.45;;;;;;;13.36;100.00;99017.72;5161516;27;20050;-52
2023/06/27 02:04:25;;;;;;;4.18;3.30;;;;;;;13.31;100.00;99022.81;5161017;27;20523;-54
2023/06/27 02:06:51;;;;;;;3.97;3.05;;;;;;;13.34;100.00;99020.06;5161226;27;20050;-56
2023/06/27 02:09:17;;;;;;;6.53;3.25;;;;;;;13.45;100.00;99016.56;5160946;27;20055;-58
2023/06/27 02:11:43;;;;;;;6.43;3.47;;;;;;;13.46;100.00;99018.13;5161219;27;20137;-59
2023/06/27 02:14:09;;;;;;;3.88;3.28;;;;;;;13.46;100.00;99018.91;5160809;27;20081;-60
2023/06/27 02:16:35;;;;;;;5.40;4.22;;;;;;;13.34;100.00;99019.28;5160836;27;20368;-59
2023/06/27 02:19:01;;;;;;;3.97;2.95;;;;;;;13.50;100.00;99010.69;5160998;27;20154;-60
2023/06/27 02:21:27;;;;;;;5.38;3.33;;;;;;;13.52;100.00;99008.31;5160753;27;20138;-59
2023/06/27 02:23:53;;;;;;;3.10;2.80;;;;;;;13.40;100.00;99014.97;5160980;27;20078;-60
2023/06/27 02:26:19;;;;;;;3.88;3.25;;;;;;;13.48;100.00;99010.28;5160871;27;20074;-56
2023/06/27 02:28:45;;;;;;;4.00;3.00;;;;;;;13.52;100.00;99006.34;5160829;27;20420;-54
2023/06/27 02:31:11;;;;;;;4.95;2.95;;;;;;;13.53;100.00;99021.72;5160721;27;20053;-52
2023/06/27 02:33:37;;;;;;;3.40;3.10;;;;;;;13.53;100.00;99020.91;5160990;27;20368;-53
2023/06/27 02:36:03;;;;;;;5.50;2.95;;;;;;;13.44;100.00;99015.00;5160499;27;20061;-53
2023/06/27 02:38:30;;;;;;;3.30;2.92;;;;;;;13.31;100.00;99011.78;5160954;27;20110;-56
2023/06/27 02:40:56;;;;;;;4.60;2.63;;;;;;;13.14;100.00;99014.03;5160445;27;20305;-61
2023/06/27 02:43:22;;;;;;;6.40;3.28;;;;;;;13.36;100.00;99025.16;5160899;27;20376;-55
2023/06/27 02:45:48;;;;;;;3.30;2.65;;;;;;;13.35;100.00;99015.34;5159621;27;20137;-56
2023/06/27 02:48:14;;;;;;;3.25;2.47;;;;;;;13.44;100.00;99012.25;5160541;27;20145;-54
2023/06/27 02:50:40;;;;;;;2.90;2.60;;;;;;;13.99;100.00;98978.91;5160582;27;20127;-52
2023/06/27 02:53:06;;;;;;;5.85;2.75;;;;;;;14.09;100.00;98903.69;5160241;27;20060;-54
2023/06/27 02:55:32;;;;;;;3.63;2.30;;;;;;;14.02;100.00;98826.53;5160370;27;20050;-53
2023/06/27 02:57:58;;;;;;;2.42;2.22;;;;;;;14.18;100.00;98763.50;5160203;27;20185;-53
2023/06/27 03:00:24;;;;;;;3.70;2.53;;;;;;;15.00;100.00;98577.44;5160544;27;20313;-53
2023/06/27 03:02:50;;;;;;;4.15;2.47;;;;;;;15.33;100.00;98337.59;5159746;27;20107;-58
2023/06/27 03:05:16;;;;;;;3.15;2.58;;;;;;;15.62;100.00;98014.72;5160476;27;20046;-60
2023/06/27 03:07:42;;;;;;;3.70;2.28;;;;;;;15.34;100.00;97947.06;5159995;27;20095;-59
2023/06/27 03:10:09;;;;;;;3.47;3.25;;;;;;;15.28;100.00;98008.31;5160442;27;20390;-61
2023/06/27 03:12:35;;;;;;;3.10;2.42;;;;;;;14.89;100.00;98005.50;5159741;27;20192;-56
2023/06/27 03:15:03;;;;;;;2.85;2.08;;;;;;;14.66;100.00;98188.34;5160162;27;20061;-54
2023/06/27 03:17:29;;;;;;;3.22;2.60;;;;;;;14.41;100.00;98159.13;5159904;27;20050;-55
2023/06/27 03:19:55;;;;;;;6.00;2.60;;;;;;;14.69;100.00;98232.44;5159952;27;20095;-57
2023/06/27 03:22:21;;;;;;;3.17;2.33;;;;;;;14.16;100.00;98348.84;5160104;27;20050;-59
2023/06/27 03:24:48;;;;;;;4.50;2.60;;;;;;;14.30;100.00;98457.03;5159918;27;20127;-61
2023/06/27 03:27:14;;;;;;;5.90;2.90;;;;;;;14.50;100.00;98393.03;5160076;27;20046;-58
2023/06/27 03:29:41;;;;;;;3.53;2.53;;;;;;;14.16;100.00;98451.63;5159611;27;20061;-60
2023/06/27 03:32:07;;;;;;;3.30;2.42;;;;;;;14.34;100.00;98479.03;5160062;27;20047;-53
2023/06/27 03:34:33;;;;;;;5.90;4.07;;;;;;;13.98;100.00;98547.41;5159542;27;20419;-56
2023/06/27 03:36:59;;;;;;;3.15;2.58;;;;;;;14.09;100.00;98606.81;5159878;27;20081;-56
2023/06/27 03:39:24;;;;;;;4.05;2.65;;;;;;;14.05;100.00;98597.75;5159412;27;20076;-60
2023/06/27 03:41:51;;;;;;;4.45;2.63;;;;;;;14.02;100.00;98576.53;5159923;27;20137;-60
2023/06/27 03:44:17;;;;;;;5.07;2.45;;;;;;;13.70;100.00;98551.91;5159694;27;20061;-58
2023/06/27 03:46:43;;;;;;;5.65;2.30;;;;;;;13.93;100.00;98675.41;5159631;27;20050;-60
2023/06/27 03:49:09;;;;;;;3.38;2.53;;;;;;;13.85;100.00;98649.03;5159616;27;20137;-59
2023/06/27 03:51:37;;;;;;;5.47;2.60;;;;;;;14.06;100.00;98660.00;5159515;27;20138;-56
2023/06/27 03:54:06;;;;;;;4.30;2.95;;;;;;;13.99;100.00;98650.94;5159354;27;20487;-58
2023/06/27 03:56:32;;;;;;;2.70;2.50;;;;;;;14.38;100.00;98667.31;5158175;27;20057;-61
2023/06/27 03:58:58;;;;;;;2.75;2.53;;;;;;;14.44;100.00;98560.91;5159541;27;20055;-61
2023/06/27 04:01:24;;;;;;;3.40;2.92;;;;;;;14.95;100.00;98439.84;5159135;27;20427;-58
2023/06/27 04:03:50;;;;;;;3.22;2.47;;;;;;;16.15;100.00;98077.19;5159444;27;20107;-56
2023/06/27 04:06:18;;;;;;;5.03;2.42;;;;;;;16.85;100.00;97632.34;5159098;27;20328;-54
2023/06/27 04:08:44;;;;;;;3.10;2.50;;;;;;;17.07;100.00;97536.31;5159484;27;20054;-57
2023/06/27 04:11:10;;;;;;;4.18;2.17;;;;;;;17.87;100.00;97516.44;5158949;27;20471;-60
2023/06/27 04:13:37;;;;;;;2.83;2.35;;;;;;;19.07;100.00;97629.94;5158840;27;20053;-56
2023/06/27 04:16:04;;;;;;;3.40;3.10;;;;;;;19.52;100.00;97782.84;5159223;27;20057;-54
2023/06/27 04:18:30;;;;;;;2.38;2.15;;;;;;;20.49;100.00;97870.69;5159005;27;20073;-58
2023/06/27 04:20:56;;;;;;;2.58;2.28;;;;;;;20.55;100.00;97910.63;5159153;27;20088;-57
2023/06/27 04:23:22;;;;;;;4.10;3.25;;;;;;;20.27;100.00;97932.06;5158746;27;20058;-55
2023/06/27 04:26:02;;;;;;;4.07;2.47;;;;;;;20.51;100.00;97982.38;5159107;27;20137;-56
2023/06/27 04:28:28;;;;;;;8.38;2.80;;;;;;;21.45;100.00;98032.94;5158803;27;20055;-53
2023/06/27 04:30:54;;;;;;;8.30;3.22;;;;;;;21.32;100.00;98079.69;5159047;27;20426;-56
2023/06/27 04:33:22;;;;;;;7.20;2.83;;;;;;;21.07;100.00;98050.88;5158799;27;20058;-55
2023/06/27 04:35:48;;;;;;;6.13;3.17;;;;;;;21.83;100.00;98045.59;5158864;27;20097;-58
2023/06/27 04:38:14;;;;;;;5.30;2.92;;;;;;;22.09;100.00;98107.38;5158396;27;20059;-54
2023/06/27 04:40:41;;;;;;;5.65;3.38;;;;;;;21.25;100.00;98094.69;5158650;27;20058;-53
2023/06/27 04:43:07;;;;;;;3.85;2.72;;;;;;;21.55;100.00;98070.72;5158450;27;20058;-58
2023/06/27 04:45:33;;;;;;;4.25;3.10;;;;;;;22.73;100.00;98114.81;5158278;27;20046;-52
2023/06/27 04:47:59;;;;;;;6.40;3.15;;;;;;;22.71;100.00;98154.41;5158510;27;20047;-50
2023/06/27 04:50:26;;;;;;;5.30;4.70;;;;;;;23.75;100.00;98163.31;5158428;27;20051;-53
2023/06/27 04:52:52;;;;;;;5.00;2.78;;;;;;;23.62;100.00;98176.75;5158563;27;20046;-55
2023/06/27 04:55:18;;;;;;;3.00;2.60;;;;;;;22.40;100.00;98165.84;5158309;27;20127;-58
2023/06/27 04:57:43;;;;;;;5.15;2.70;;;;;;;22.95;100.00;98176.81;5158621;27;20046;-60
2023/06/27 05:00:11;;;;;;;3.53;2.40;;;;;;;23.23;100.00;98196.28;5158026;27;20401;-59
2023/06/27 05:02:37;;;;;;;5.28;2.78;;;;;;;23.69;100.00;98209.97;5158523;27;20396;-53
2023/06/27 05:05:03;;;;;;;4.35;2.03;;;;;;;23.87;100.00;98212.66;5158048;27;20089;-55
2023/06/27 05:07:30;;;;;;;3.92;2.90;;;;;;;24.38;100.00;98217.19;5158018;27;20052;-57
2023/06/27 05:09:56;;;;;;;5.22;2.72;;;;;;;24.59;99.60;98228.53;5157805;27;20515;-60
2023/06/27 05:12:22;;;;;;;2.80;2.60;;;;;;;24.39;96.07;98240.38;5157891;27;20065;-56
2023/06/27 05:14:48;;;;;;;2.40;2.20;;;;;;;24.55;95.80;98241.97;5157890;27;20408;-58
2023/06/27 05:17:14;;;;;;;2.50;2.30;;;;;;;23.75;100.00;98233.25;5157752;27;20114;-57
2023/06/27 05:19:40;;;;;;;2.75;2.08;;;;;;;25.22;94.16;98240.28;5137091;28;20066;-56
2023/06/27 05:22:06;;;;;;;2.13;1.92;;;;;;;25.40;90.61;98249.75;5137194;28;20074;-56
2023/06/27 05:24:33;;;;;;;3.13;1.60;;;;;;;26.13;82.59;98265.53;5137433;28;20129;-60
2023/06/27 05:26:59;;;;;;;2.08;1.85;;;;;;;25.77;87.37;98253.56;5136904;28;20409;-54
2023/06/27 05:29:26;;;;;;;2.13;2.03;;;;;;;26.01;83.47;98269.47;5137485;28;20047;-53
2023/06/27 05:31:52;;;;;;;2.58;2.22;;;;;;;26.16;80.16;98267.34;5136866;28;20087;-57
2023/06/27 05:34:17;;;;;;;3.63;2.00;;;;;;;25.86;81.03;98263.13;5137370;28;20074;-55
2023/06/27 05:36:43;;;;;;;1.95;1.85;;;;;;;26.70;81.81;98262.06;5136677;27;20416;-56
2023/06/27 05:39:09;;;;;;;5.18;2.30;;;;;;;27.11;79.52;98261.91;5136969;28;20055;-50
2023/06/27 05:41:36;;;;;;;2.33;2.13;;;;;;;27.32;77.52;98267.44;5136691;28;20109;-53
2023/06/27 05:44:02;;;;;;;2.28;2.10;;;;;;;24.57;87.02;98250.66;5136759;28;20047;-50
2023/06/27 05:46:28;;;;;;;2.08;1.98;;;;;;;26.45;81.79;98254.38;5136782;28;20043;-56
2023/06/27 05:48:54;;;;;;;2.03;1.90;;;;;;;25.72;85.49;98250.66;5136607;28;20051;-58
2023/06/27 05:51:22;;;;;;;2.90;2.03;;;;;;;25.83;84.99;98255.72;5136798;28;20138;-56
2023/06/27 05:53:47;;;;;;;5.15;2.40;;;;;;;26.38;82.38;98247.16;5136631;28;20119;-52
2023/06/27 05:56:14;;;;;;;2.10;2.00;;;;;;;26.86;80.24;98262.72;5136954;28;20393;-53
2023/06/27 05:58:40;;;;;;;2.38;2.17;;;;;;;26.81;79.76;98263.44;5136392;28;20047;-57
2023/06/27 06:01:06;;;;;;;2.35;2.20;;;;;;;25.44;85.15;98250.31;5136726;28;20138;-55
2023/06/27 06:03:32;;;;;;;2.72;2.35;;;;;;;25.03;90.75;98236.16;5136527;28;20057;-56
2023/06/27 06:05:58;;;;;;;4.13;2.53;;;;;;;24.91;94.28;98237.22;5136616;27;20043;-52
2023/06/27 06:08:24;;;;;;;4.22;2.10;;;;;;;25.29;94.00;98222.28;5136234;28;20408;-54
2023/06/27 06:10:50;;;;;;;2.75;2.55;;;;;;;25.24;95.70;98215.34;5136191;28;20051;-57
2023/06/27 06:13:16;;;;;;;4.72;2.55;;;;;;;27.14;84.07;98241.22;5136431;28;20146;-55
2023/06/27 06:15:43;;;;;;;3.47;2.60;;;;;;;25.95;88.82;98229.28;5135933;28;20047;-57
2023/06/27 06:18:09;;;;;;;3.78;2.60;;;;;;;25.34;95.99;98219.56;5136182;28;20476;-53
2023/06/27 06:20:35;;;;;;;3.25;2.95;;;;;;;26.51;89.27;98232.75;5137784;27;20086;-55
2023/06/27 06:23:00;;;;;;;3.28;2.97;;;;;;;27.23;81.19;98233.88;5139667;27;20047;-52
2023/06/27 06:25:27;;;;;;;3.65;2.90;;;;;;;26.62;87.29;98230.03;5139555;28;20134;-53
2023/06/27 06:27:53;;;;;;;2.75;2.55;;;;;;;26.42;88.17;98224.44;5139905;28;20488;-57
2023/06/27 06:30:19;;;;;;;3.20;2.50;;;;;;;28.13;79.48;98237.94;5139528;27;20047;-54
2023/06/27 06:32:46;;;;;;;3.10;2.90;;;;;;;27.07;83.19;98232.47;5139702;27;20101;-54
2023/06/27 06:35:13;;;;;;;3.13;2.67;;;;;;;27.41;82.98;98225.81;5139440;27;20103;-56
2023/06/27 06:37:38;;;;;;;3.50;2.70;;;;;;;27.91;81.10;98230.94;5139123;27;20047;-56
2023/06/27 06:40:06;;;;;;;2.72;2.50;;;;;;;29.02;73.92;98228.09;5139242;28;20043;-57
2023/06/27 06:42:32;;;;;;;2.90;2.70;;;;;;;29.02;73.98;98231.72;5139547;27;20480;-60
2023/06/27 06:44:58;;;;;;;2.95;2.72;;;;;;;27.63;80.13;98215.97;5139611;27;20058;-60
2023/06/27 06:47:24;;;;;;;3.13;2.85;;;;;;;27.24;81.56;98219.31;5139240;27;20146;-59
2023/06/27 06:49:51;;;;;;;2.85;2.60;;;;;;;27.76;78.22;98219.13;5139695;28;20055;-56
2023/06/27 06:52:17;;;;;;;2.90;2.70;;;;;;;27.68;75.92;98224.41;5139239;28;20497;-59
2023/06/27 06:54:43;;;;;;;3.15;2.85;;;;;;;26.79;80.98;98224.59;5139693;28;20093;-57
2023/06/27 06:57:10;;;;;;;4.22;2.53;;;;;;;26.70;79.28;98214.28;5139129;28;20336;-60
2023/06/27 06:59:36;;;;;;;2.83;2.63;;;;;;;26.80;81.88;98206.44;5139617;28;20051;-58
2023/06/27 07:02:01;;;;;;;2.50;2.30;;;;;;;26.90;77.32;98218.28;5139220;27;20134;-59
2023/06/27 07:04:27;;;;;;;3.10;2.90;;;;;;;26.52;81.45;98206.97;5139560;27;20397;-60
2023/06/27 07:06:55;;;;;;;2.80;2.60;;;;;;;27.48;81.94;98209.72;5139391;27;20057;-56
2023/06/27 07:09:20;;;;;;;5.57;2.13;;;;;;;26.47;74.17;98223.75;5139263;28;20047;-57
2023/06/27 07:11:48;;;;;;;2.58;2.40;;;;;;;25.84;78.80;98207.47;5139272;28;20046;-60
2023/06/27 07:14:16;;;;;;;5.25;2.10;;;;;;;25.93;77.49;98203.75;5139160;28;20047;-54
2023/06/27 07:16:41;;;;;;;3.30;2.97;;;;;;;26.55;77.46;98202.38;5138939;28;20093;-57
2023/06/27 07:19:07;;;;;;;2.67;2.47;;;;;;;25.50;83.25;98198.59;5138894;27;20050;-56
2023/06/27 07:21:34;;;;;;;2.47;2.38;;;;;;;26.50;77.18;98212.31;5138938;27;20375;-55
2023/06/27 07:24:01;;;;;;;2.58;2.38;;;;;;;26.66;77.14;98204.53;5138864;27;20055;-59
2023/06/27 07:26:27;;;;;;;3.38;2.58;;;;;;;26.68;76.61;98208.38;5138993;28;20059;-57
2023/06/27 07:28:53;;;;;;;3.20;2.63;;;;;;;25.46;85.86;98200.06;5138828;28;20070;-59
2023/06/27 07:31:19;;;;;;;2.75;2.60;;;;;;;27.21;77.85;98204.19;5138332;27;20047;-61
2023/06/27 07:33:45;;;;;;;2.65;2.42;;;;;;;26.68;78.27;98202.75;5138665;27;20129;-60
2023/06/27 07:36:11;;;;;;;2.50;2.30;;;;;;;28.05;74.76;98208.72;5138711;27;20165;-54
2023/06/27 07:38:38;;;;;;;2.90;2.70;;;;;;;27.15;73.36;98219.50;5138540;27;20456;-53
2023/06/27 07:41:04;;;;;;;2.70;2.50;;;;;;;26.78;72.27;98225.84;5138710;27;20074;-59
2023/06/27 07:43:30;;;;;;;2.58;2.38;;;;;;;27.85;66.41;98232.19;5138875;28;20141;-57
2023/06/27 07:45:56;;;;;;;3.70;2.65;;;;;;;27.51;65.60;98232.00;5138276;28;20058;-58
2023/06/27 07:48:22;;;;;;;3.17;2.83;;;;;;;26.15;73.28;98206.81;5138768;27;20085;-58
2023/06/27 07:50:48;;;;;;;2.75;2.55;;;;;;;27.04;68.83;98225.78;5138594;28;20058;-57
2023/06/27 07:53:15;;;;;;;2.88;2.20;;;;;;;27.45;71.47;98206.63;5138675;28;20055;-55
2023/06/27 07:55:41;;;;;;;3.30;3.00;;;;;;;26.20;71.90;98205.34;5138453;28;20432;-58
2023/06/27 07:58:08;;;;;;;3.00;2.80;;;;;;;26.15;71.19;98195.56;5138701;27;20139;-55
2023/06/27 08:00:34;;;;;;;3.50;2.60;;;;;;;26.55;72.22;98195.97;5138065;28;20149;-57
2023/06/27 08:02:59;;;;;;;2.50;2.40;;;;;;;26.18;71.80;98194.59;5138548;27;20046;-54
2023/06/27 08:05:27;;;;;;;3.10;2.53;;;;;;;27.92;66.85;98186.63;5137909;27;20055;-52
2023/06/27 08:07:53;;;;;;;2.92;2.72;;;;;;;28.48;65.46;98191.66;5138033;28;20474;-60
2023/06/27 08:10:19;;;;;;;3.20;2.67;;;;;;;28.09;65.79;98181.84;5138097;28;20055;-56
2023/06/27 08:12:45;;;;;;;2.60;2.40;;;;;;;27.29;65.64;98192.47;5137850;27;20066;-56
2023/06/27 08:15:12;;;;;;;3.63;2.55;;;;;;;27.94;62.67;98189.72;5138303;27;20050;-56
2023/06/27 08:17:38;;;;;;;2.80;2.60;;;;;;;27.96;62.85;98183.56;5138121;28;20050;-56
2023/06/27 08:20:05;;;;;;;4.25;2.55;;;;;;;28.01;63.86;98168.75;5138212;28;20163;-54
2023/06/27 08:22:31;;;;;;;2.67;2.47;;;;;;;28.71;62.44;98175.53;5137929;28;20431;-56
2023/06/27 08:24:57;;;;;;;2.92;2.33;;;;;;;26.46;67.91;98180.81;5138220;28;20135;-56
2023/06/27 08:27:23;;;;;;;2.58;2.38;;;;;;;28.53;62.43;98182.47;5137861;28;20111;-60
2023/06/27 08:29:49;;;;;;;4.30;2.38;;;;;;;27.51;64.33;98186.97;5138221;28;20054;-54
2023/06/27 08:32:16;;;;;;;2.58;2.38;;;;;;;26.99;66.71;98182.28;5137689;28;20047;-57
2023/06/27 08:34:42;;;;;;;2.72;2.53;;;;;;;27.47;64.61;98186.44;5137518;27;20043;-57
2023/06/27 08:37:08;;;;;;;2.95;2.30;;;;;;;27.16;63.67;98176.81;5137320;27;20055;-55
2023/06/27 08:39:34;;;;;;;2.72;2.53;;;;;;;27.43;64.76;98172.59;5137383;28;20068;-57
2023/06/27 08:42:01;;;;;;;4.25;2.60;;;;;;;26.98;65.41;98182.78;5137907;27;20150;-60
2023/06/27 08:44:27;;;;;;;3.40;3.10;;;;;;;28.69;62.55;98173.25;5137012;28;20054;-59
2023/06/27 08:46:56;;;;;;;2.45;2.25;;;;;;;27.80;60.50;98174.59;5137572;28;20047;-54
2023/06/27 08:49:27;;;;;;;3.65;2.33;;;;;;;27.54;60.79;98182.38;5137591;28;20133;-54
2023/06/27 08:51:56;;;;;;;3.00;2.40;;;;;;;28.80;59.37;98183.75;5137437;28;20058;-56
2023/06/27 08:54:30;;;;;;;2.42;2.22;;;;;;;27.26;61.74;98183.00;5137274;28;20078;-56
2023/06/27 08:56:57;;;;;;;1.92;1.83;;;;;;;27.59;61.61;98181.63;5137067;27;20062;-56
2023/06/27 08:59:27;;;;;;;2.30;2.10;;;;;;;26.89;62.73;98178.13;5135441;28;20061;-56
2023/06/27 09:01:53;;;;;;;4.30;2.45;;;;;;;26.41;65.75;98172.34;5137419;28;20050;-61
2023/06/27 09:04:19;;;;;;;2.20;2.00;;;;;;;25.86;68.42;98167.66;5137334;28;20043;-58
2023/06/27 09:06:46;;;;;;;2.85;2.33;;;;;;;26.77;65.54;98173.69;5137140;27;20138;-52
2023/06/27 09:09:14;;;;;;;2.13;1.90;;;;;;;27.34;60.20;98163.59;5137498;28;20101;-57
2023/06/27 09:11:41;;;;;;;4.75;2.20;;;;;;;27.46;62.44;98168.03;5137012;28;20416;-57
2023/06/27 09:14:07;;;;;;;2.30;2.17;;;;;;;27.87;60.78;98156.44;5137170;28;20055;-54
2023/06/27 09:16:34;;;;;;;2.40;2.20;;;;;;;28.42;59.49;98166.28;5136966;28;20137;-61
2023/06/27 09:19:00;;;;;;;2.20;2.03;;;;;;;27.19;61.44;98167.38;5137361;28;20061;-54
2023/06/27 09:21:27;;;;;;;2.70;2.20;;;;;;;27.62;61.07;98167.34;5136914;27;20043;-53
2023/06/27 09:23:55;;;;;;;2.38;2.22;;;;;;;27.14;63.91;98167.31;5137316;28;20396;-52
2023/06/27 09:26:21;;;;;;;2.38;2.22;;;;;;;26.91;61.70;98167.13;5136849;28;20051;-55
2023/06/27 09:28:48;;;;;;;2.10;2.00;;;;;;;27.60;63.23;98167.06;5136980;28;20051;-49
2023/06/27 09:31:16;;;;;;;4.00;2.17;;;;;;;28.02;59.43;98159.78;5137092;28;20054;-55
2023/06/27 09:33:43;;;;;;;4.22;2.63;;;;;;;27.07;66.01;98153.69;5137104;28;20387;-57
2023/06/27 09:36:10;;;;;;;2.55;2.30;;;;;;;27.19;65.50;98153.31;5137984;27;20044;-61
2023/06/27 09:38:36;;;;;;;2.10;2.00;;;;;;;26.38;65.43;98146.00;5136582;28;20123;-57
2023/06/27 09:41:04;;;;;;;2.20;2.10;;;;;;;25.44;67.23;98141.66;5137005;27;20051;-51
2023/06/27 09:43:31;;;;;;;2.10;1.90;;;;;;;26.10;65.21;98145.75;5136707;28;20051;-54
2023/06/27 09:45:58;;;;;;;2.40;2.15;;;;;;;25.97;66.22;98145.34;5136830;28;20043;-58
2023/06/27 09:48:24;;;;;;;4.13;2.30;;;;;;;25.28;70.23;98136.59;5136667;28;20051;-57
2023/06/27 09:50:58;;;;;;;2.40;2.20;;;;;;;25.92;70.73;98137.63;5136940;27;20065;-53
2023/06/27 09:53:24;;;;;;;2.67;2.28;;;;;;;24.63;72.89;98136.66;5136857;27;20051;-52
2023/06/27 09:55:56;;;;;;;2.67;2.30;;;;;;;24.55;73.92;98130.66;5140004;27;20047;-57
2023/06/27 09:58:27;;;;;;;3.30;2.60;;;;;;;24.56;76.63;98123.03;5140355;27;20099;-52
2023/06/27 10:00:53;;;;;;;2.40;2.20;;;;;;;25.93;67.98;98136.38;5140072;28;20363;-54
2023/06/27 10:03:20;;;;;;;2.63;2.40;;;;;;;26.47;68.33;98143.03;5140171;28;20471;-59
2023/06/27 10:05:46;;;;;;;2.80;2.60;;;;;;;25.21;74.94;98129.34;5139860;27;20058;-51
2023/06/27 10:08:12;;;;;;;2.53;2.40;;;;;;;25.65;72.74;98131.16;5140166;27;20103;-53
2023/06/27 10:10:39;;;;;;;2.67;2.35;;;;;;;25.52;70.75;98139.19;5139778;28;20051;-54
2023/06/27 10:13:06;;;;;;;2.40;2.30;;;;;;;26.08;68.30;98137.03;5140366;28;20423;-51
2023/06/27 10:15:32;;;;;;;2.63;2.42;;;;;;;26.36;66.03;98133.69;5140138;28;20134;-52
2023/06/27 10:17:59;;;;;;;1.88;1.77;;;;;;;27.67;63.26;98141.22;5140185;27;20065;-55
2023/06/27 10:20:25;;;;;;;2.20;2.10;;;;;;;27.17;62.19;98138.94;5140008;27;20055;-54
2023/06/27 10:22:54;;;;;;;2.42;2.15;;;;;;;27.62;63.32;98142.00;5139623;28;20066;-50
2023/06/27 10:25:20;;;;;;;2.03;1.92;;;;;;;27.82;62.79;98143.84;5139969;28;20439;-52
2023/06/27 10:27:47;;;;;;;2.35;2.00;;;;;;;27.30;63.32;98141.31;5139604;28;20050;-52
2023/06/27 10:30:24;;;;;;;2.85;2.17;;;;;;;27.09;65.16;98134.25;5139737;28;20408;-57
2023/06/27 10:32:50;;;;;;;2.00;1.90;;;;;;;26.65;64.60;98132.69;5139719;28;20099;-55
2023/06/27 10:35:25;;;;;;;2.47;2.28;;;;;;;25.65;68.37;98125.56;5140025;28;20085;-55
2023/06/27 10:38:05;;;;;;;2.58;2.38;;;;;;;26.10;69.95;98126.06;5139435;27;20074;-60
2023/06/27 10:41:23;;;;;;;2.55;2.35;;;;;;;26.13;67.81;98119.47;5139863;28;20055;-54
2023/06/27 10:43:51;;;;;;;2.95;1.85;;;;;;;25.29;66.37;98112.88;5139685;27;20058;-57
2023/06/27 10:46:18;;;;;;;2.33;2.10;;;;;;;25.50;68.81;98106.00;5139402;28;20066;-57
2023/06/27 10:48:49;;;;;;;2.67;2.15;;;;;;;25.38;68.56;98104.31;5139750;27;20054;-53
2023/06/27 10:51:16;;;;;;;3.03;2.10;;;;;;;25.81;68.56;98108.16;5139352;27;20055;-58
2023/06/27 10:53:43;;;;;;;2.00;1.90;;;;;;;25.91;68.42;98102.41;5139790;27;20051;-55
2023/06/27 10:56:16;;;;;;;2.42;2.22;;;;;;;25.55;68.80;98101.72;5139163;28;20058;-56
2023/06/27 10:58:44;;;;;;;2.65;1.95;;;;;;;25.42;69.40;98093.66;5139358;28;20051;-59
2023/06/27 11:01:11;;;;;;;2.85;2.22;;;;;;;25.41;71.36;98091.34;5139299;28;20397;-59
2023/06/27 11:03:38;;;;;;;4.28;2.30;;;;;;;25.25;71.64;98070.25;5139167;28;20051;-52
2023/06/27 11:06:05;;;;;;;3.72;2.58;;;;;;;24.28;74.05;98075.69;5138862;27;20057;-54
2023/06/27 11:08:33;;;;;;;2.30;2.10;;;;;;;24.93;74.13;98075.69;5139324;28;20059;-56
2023/06/27 11:11:04;;;;;;;1.98;1.88;;;;;;;25.13;71.50;98086.19;5139407;28;20188;-56
2023/06/27 11:13:33;;;;;;;2.17;1.98;;;;;;;25.14;72.29;98087.72;5138979;28;20232;-58
2023/06/27 11:15:59;;;;;;;4.68;1.80;;;;;;;24.85;73.93;98071.75;5139382;28;20134;-57
2023/06/27 11:18:26;;;;;;;2.75;2.50;;;;;;;24.45;76.94;98073.19;5138991;27;20082;-58
2023/06/27 11:20:52;;;;;;;2.90;2.67;;;;;;;24.53;78.91;98068.75;5139231;28;20047;-55
2023/06/27 11:23:20;;;;;;;2.92;2.72;;;;;;;24.16;78.44;98065.59;5138885;28;20047;-53
2023/06/27 11:25:46;;;;;;;2.50;2.30;;;;;;;24.60;76.73;98056.38;5139191;28;20051;-56
2023/06/27 11:28:15;;;;;;;3.97;1.73;;;;;;;25.09;73.18;98072.34;5139023;28;20063;-54